createdAt,value
2023-01-11T00:01:19.741Z,2.00
2023-01-11T00:03:46.264Z,1.97
2023-01-11T00:06:13.180Z,5.00
2023-01-11T00:08:40.177Z,6.60
2023-01-11T00:11:12.527Z,2.23
2023-01-11T00:13:38.931Z,2.03
2023-01-11T00:16:06.070Z,2.17
2023-01-11T00:18:32.488Z,2.30
2023-01-11T00:21:00.210Z,2.27
2023-01-11T00:23:26.569Z,2.33
2023-01-11T00:25:53.575Z,2.63
2023-01-11T00:28:19.917Z,2.20
2023-01-11T00:30:48.203Z,2.10
2023-01-11T00:33:14.836Z,2.00
2023-01-11T00:35:41.259Z,2.00
2023-01-11T00:38:07.658Z,1.93
2023-01-11T00:40:34.044Z,2.20
2023-01-11T00:43:19.497Z,1.83
2023-01-11T00:46:15.397Z,2.20
2023-01-11T00:48:41.805Z,2.13
2023-01-11T00:51:08.184Z,2.10
2023-01-11T00:53:34.556Z,1.90
2023-01-11T00:56:02.002Z,2.40
2023-01-11T00:58:29.047Z,1.73
2023-01-11T01:00:55.428Z,1.90
2023-01-11T01:03:21.803Z,2.03
2023-01-11T01:05:48.183Z,2.03
2023-01-11T01:08:14.695Z,1.90
2023-01-11T01:10:41.107Z,2.10
2023-01-11T01:13:28.522Z,2.00
2023-01-11T01:15:57.336Z,1.93
2023-01-11T01:18:23.754Z,1.70
2023-01-11T01:20:50.585Z,1.73
2023-01-11T01:23:16.985Z,1.60
2023-01-11T01:25:43.383Z,1.80
2023-01-11T01:28:09.793Z,1.50
2023-01-11T01:30:36.140Z,1.63
2023-01-11T01:33:03.164Z,1.60
2023-01-11T01:35:29.559Z,1.77
2023-01-11T01:37:55.931Z,1.60
2023-01-11T01:40:22.306Z,1.60
2023-01-11T01:42:52.927Z,1.40
2023-01-11T01:45:23.956Z,1.17
2023-01-11T01:47:54.471Z,1.67
2023-01-11T01:50:25.028Z,1.33
2023-01-11T01:52:55.953Z,1.37
2023-01-11T01:55:26.581Z,1.50
2023-01-11T01:57:54.652Z,1.20
2023-01-11T02:00:23.484Z,1.37
2023-01-11T02:02:50.575Z,1.50
2023-01-11T02:05:17.717Z,1.50
2023-01-11T02:07:46.394Z,1.33
2023-01-11T02:10:16.018Z,1.30
2023-01-11T02:12:48.401Z,1.50
2023-01-11T02:15:17.105Z,1.23
2023-01-11T02:17:43.462Z,1.50
2023-01-11T02:20:23.172Z,1.40
2023-01-11T02:23:25.097Z,1.53
2023-01-11T02:26:40.156Z,1.50
2023-01-11T02:29:13.553Z,1.20
2023-01-11T02:31:47.059Z,1.40
2023-01-11T02:34:28.876Z,1.50
2023-01-11T02:37:05.950Z,1.63
2023-01-11T02:39:44.462Z,1.37
2023-01-11T02:42:37.189Z,1.13
2023-01-11T02:45:15.114Z,1.13
2023-01-11T02:47:47.675Z,1.20
2023-01-11T02:50:21.431Z,1.50
2023-01-11T02:52:53.967Z,1.20
2023-01-11T02:55:36.032Z,1.17
2023-01-11T02:58:05.813Z,1.17
2023-01-11T03:00:33.357Z,1.20
2023-01-11T03:03:08.380Z,1.20
2023-01-11T03:05:37.948Z,1.30
2023-01-11T03:08:25.031Z,1.30
2023-01-11T03:11:01.246Z,1.10
2023-01-11T03:13:37.670Z,1.10
2023-01-11T03:16:16.424Z,1.10
2023-01-11T03:18:52.323Z,1.07
2023-01-11T03:21:36.720Z,1.03
2023-01-11T03:24:11.859Z,1.30
2023-01-11T03:26:49.416Z,1.30
2023-01-11T03:29:22.556Z,1.30
2023-01-11T03:31:54.174Z,1.27
2023-01-11T03:34:31.364Z,0.93
2023-01-11T03:37:03.443Z,1.07
2023-01-11T03:39:36.943Z,1.10
2023-01-11T03:42:07.673Z,1.13
2023-01-11T03:44:39.383Z,0.93
2023-01-11T03:47:10.817Z,1.33
2023-01-11T03:49:41.920Z,1.23
2023-01-11T03:52:11.955Z,1.20
2023-01-11T03:54:39.680Z,1.30
2023-01-11T03:57:12.215Z,1.10
2023-01-11T03:59:39.790Z,1.20
2023-01-11T04:02:15.238Z,1.33
2023-01-11T04:04:41.626Z,1.30
2023-01-11T04:07:07.982Z,1.27
2023-01-11T04:09:34.900Z,1.30
2023-01-11T04:12:02.391Z,1.30
2023-01-11T04:14:28.788Z,1.30
2023-01-11T04:16:55.177Z,1.03
2023-01-11T04:19:22.349Z,1.20
2023-01-11T04:21:48.728Z,1.30
2023-01-11T04:24:15.183Z,1.17
2023-01-11T04:26:41.543Z,1.30
2023-01-11T04:29:09.009Z,1.40
2023-01-11T04:31:35.484Z,1.30
2023-01-11T04:34:01.934Z,1.17
2023-01-11T04:36:30.748Z,1.10
2023-01-11T04:38:57.484Z,1.10
2023-01-11T04:41:42.985Z,1.00
2023-01-11T04:44:09.780Z,1.00
2023-01-11T04:46:36.127Z,1.10
2023-01-11T04:49:02.559Z,1.00
2023-01-11T04:51:29.659Z,1.00
2023-01-11T04:53:56.018Z,1.30
2023-01-11T04:56:22.452Z,1.10
2023-01-11T04:58:48.901Z,1.20
2023-01-11T05:01:17.066Z,1.30
2023-01-11T05:03:44.528Z,1.07
2023-01-11T05:06:12.116Z,1.30
2023-01-11T05:08:39.511Z,1.20
2023-01-11T05:11:07.896Z,1.40
2023-01-11T05:13:43.323Z,1.67
2023-01-11T05:16:11.461Z,1.37
2023-01-11T05:18:39.733Z,1.20
2023-01-11T05:21:06.388Z,1.40
2023-01-11T05:23:35.391Z,1.50
2023-01-11T05:26:03.978Z,1.37
2023-01-11T05:28:30.373Z,1.60
2023-01-11T05:30:56.727Z,1.53
2023-01-11T05:33:23.165Z,1.27
2023-01-11T05:35:54.439Z,1.60
2023-01-11T05:38:20.878Z,5.10
2023-01-11T05:40:53.862Z,1.60
2023-01-11T05:43:20.941Z,1.80
2023-01-11T05:45:47.094Z,1.63
2023-01-11T05:48:13.454Z,2.53
2023-01-11T05:50:39.827Z,1.77
2023-01-11T05:53:06.712Z,2.20
2023-01-11T05:55:33.140Z,5.17
2023-01-11T05:57:59.577Z,1.90
2023-01-11T06:00:26.806Z,1.90
2023-01-11T06:02:53.241Z,1.70
2023-01-11T06:05:19.656Z,1.60
2023-01-11T06:07:46.023Z,1.60
2023-01-11T06:10:12.401Z,1.40
2023-01-11T06:12:38.817Z,1.27
2023-01-11T06:15:06.187Z,1.60
2023-01-11T06:17:33.282Z,1.10
2023-01-11T06:20:00.784Z,1.20
2023-01-11T06:22:27.150Z,1.20
2023-01-11T06:24:53.519Z,1.33
2023-01-11T06:27:20.540Z,1.43
2023-01-11T06:29:47.071Z,1.37
2023-01-11T06:32:13.489Z,1.20
2023-01-11T06:34:40.503Z,1.47
2023-01-11T06:37:06.910Z,1.50
2023-01-11T06:39:33.300Z,1.27
2023-01-11T06:41:59.747Z,1.50
2023-01-11T06:44:26.129Z,1.43
2023-01-11T06:46:52.497Z,1.20
2023-01-11T06:49:18.846Z,1.20
2023-01-11T06:51:45.939Z,1.40
2023-01-11T06:54:12.408Z,1.60
2023-01-11T06:56:39.120Z,1.60
2023-01-11T06:59:05.695Z,1.43
2023-01-11T07:01:32.138Z,2.90
2023-01-11T07:03:58.556Z,1.80
2023-01-11T07:06:24.911Z,1.60
2023-01-11T07:08:51.934Z,1.67
2023-01-11T07:11:18.348Z,1.70
2023-01-11T07:13:44.725Z,1.50
2023-01-11T07:16:11.157Z,2.00
2023-01-11T07:18:37.669Z,1.50
2023-01-11T07:21:04.151Z,1.70
2023-01-11T07:23:30.538Z,1.40
2023-01-11T07:25:57.602Z,2.23
2023-01-11T07:28:23.990Z,1.60
2023-01-11T07:30:58.596Z,1.63
2023-01-11T07:33:26.302Z,2.17
2023-01-11T07:35:53.447Z,2.20
2023-01-11T07:38:19.845Z,1.47
2023-01-11T07:40:46.414Z,2.20
2023-01-11T07:43:18.620Z,1.40
2023-01-11T07:45:48.423Z,1.53
2023-01-11T07:48:19.895Z,2.10
2023-01-11T07:50:47.771Z,2.00
2023-01-11T07:53:14.212Z,2.10
2023-01-11T07:55:41.108Z,1.50
2023-01-11T07:58:10.266Z,1.83
2023-01-11T08:00:37.389Z,1.57
2023-01-11T08:03:03.979Z,1.40
2023-01-11T08:05:30.413Z,1.70
2023-01-11T08:07:56.942Z,1.40
2023-01-11T08:10:23.679Z,1.40
2023-01-11T08:13:08.399Z,1.30
2023-01-11T08:15:35.885Z,1.40
2023-01-11T08:18:04.960Z,1.33
2023-01-11T08:20:31.419Z,1.63
2023-01-11T08:22:57.836Z,0.97
2023-01-11T08:25:24.434Z,1.10
2023-01-11T08:27:50.925Z,1.60
2023-01-11T08:30:18.114Z,1.60
2023-01-11T08:32:44.627Z,2.53
2023-01-11T08:35:12.429Z,3.93
2023-01-11T08:37:38.821Z,2.50
2023-01-11T08:40:06.417Z,2.13
2023-01-11T08:42:33.351Z,3.20
2023-01-11T08:44:59.805Z,2.00
2023-01-11T08:47:26.201Z,2.20
2023-01-11T08:49:52.586Z,1.80
2023-01-11T08:52:20.976Z,1.80
2023-01-11T08:54:47.355Z,1.57
2023-01-11T08:57:13.817Z,1.63
2023-01-11T08:59:40.220Z,1.37
2023-01-11T09:02:06.708Z,2.40
2023-01-11T09:04:33.546Z,1.53
2023-01-11T09:07:00.241Z,2.07
2023-01-11T09:09:27.579Z,1.83
2023-01-11T09:11:55.664Z,2.10
2023-01-11T09:14:23.791Z,1.70
2023-01-11T09:16:50.515Z,1.77
2023-01-11T09:19:17.094Z,1.57
2023-01-11T09:21:43.838Z,1.03
2023-01-11T09:24:10.263Z,1.30
2023-01-11T09:26:37.665Z,1.40
2023-01-11T09:29:04.432Z,1.27
2023-01-11T09:31:30.914Z,0.93
2023-01-11T09:33:57.332Z,1.50
2023-01-11T09:40:45.444Z,1.93
2023-01-11T09:43:15.439Z,2.03
2023-01-11T09:45:46.043Z,2.93
2023-01-11T09:48:25.958Z,1.33
2023-01-11T09:50:52.701Z,2.00
2023-01-11T09:53:27.314Z,1.47
2023-01-11T09:55:57.341Z,1.27
2023-01-11T09:58:46.045Z,1.10
2023-01-11T10:01:17.172Z,1.20
2023-01-11T10:04:15.180Z,1.07
2023-01-11T10:06:51.783Z,1.07
2023-01-11T10:18:37.348Z,1.00
2023-01-11T10:18:49.417Z,0.90
2023-01-11T10:21:18.892Z,0.70
2023-01-11T10:23:49.845Z,1.00
2023-01-11T10:26:26.654Z,1.30
2023-01-11T10:29:16.575Z,1.07
2023-01-11T10:32:08.895Z,1.33
2023-01-11T10:34:59.105Z,1.70
2023-01-11T10:37:47.418Z,1.87
2023-01-11T10:40:36.799Z,1.27
2023-01-11T10:43:12.132Z,1.60
2023-01-11T10:45:43.735Z,3.77
2023-01-11T10:48:18.186Z,1.37
2023-01-11T10:50:53.213Z,1.10
2023-01-11T10:53:25.565Z,1.00
2023-01-11T10:56:01.381Z,1.00
2023-01-11T10:58:47.365Z,1.07
2023-01-11T11:01:28.061Z,1.00
2023-01-11T11:04:14.069Z,1.10
2023-01-11T11:06:51.002Z,1.40
2023-01-11T11:09:25.670Z,1.03
2023-01-11T11:11:58.203Z,1.20
2023-01-11T11:14:33.425Z,0.97
2023-01-11T11:17:12.978Z,1.00
2023-01-11T11:19:41.843Z,0.60
2023-01-11T11:22:10.655Z,1.23
2023-01-11T11:24:42.436Z,0.90
2023-01-11T11:27:18.648Z,1.10
2023-01-11T11:29:50.459Z,1.10
2023-01-11T11:32:27.431Z,0.90
2023-01-11T11:34:54.554Z,1.10
2023-01-11T11:37:24.836Z,1.00
2023-01-11T11:39:52.504Z,1.10
2023-01-11T11:42:20.845Z,1.10
2023-01-11T11:45:12.697Z,1.27
2023-01-11T11:47:39.146Z,1.00
2023-01-11T11:50:43.139Z,1.90
2023-01-11T11:53:25.096Z,1.47
2023-01-11T11:55:52.779Z,1.20
2023-01-11T11:58:23.573Z,1.53
2023-01-11T12:00:52.012Z,1.67
2023-01-11T12:03:21.375Z,1.20
2023-01-11T12:05:55.272Z,1.40
2023-01-11T12:08:23.895Z,1.80
2023-01-11T12:10:56.684Z,1.10
2023-01-11T12:13:29.235Z,0.97
2023-01-11T12:15:56.833Z,1.30
2023-01-11T12:18:25.026Z,1.10
2023-01-11T12:20:52.705Z,1.20
2023-01-11T12:23:23.320Z,1.50
2023-01-11T12:26:12.867Z,1.00
2023-01-11T12:28:58.741Z,1.10
2023-01-11T12:31:31.545Z,1.50
2023-01-11T12:34:07.732Z,3.03
2023-01-11T12:36:44.365Z,2.10
2023-01-11T12:39:21.098Z,1.70
2023-01-11T12:42:04.382Z,1.00
2023-01-11T12:44:57.568Z,1.40
2023-01-11T12:47:56.443Z,0.93
2023-01-11T12:50:26.455Z,1.07
2023-01-11T12:53:09.173Z,0.90
2023-01-11T12:55:55.750Z,1.20
2023-01-11T12:58:30.888Z,1.27
2023-01-11T13:01:19.113Z,1.70
2023-01-11T13:04:20.069Z,1.50
2023-01-11T13:06:55.913Z,1.50
2023-01-11T13:09:37.388Z,1.80
2023-01-11T13:12:11.668Z,0.80
2023-01-11T13:14:54.354Z,1.30
2023-01-11T13:17:27.900Z,1.00
2023-01-11T13:20:06.728Z,1.10
2023-01-11T13:22:38.007Z,0.90
2023-01-11T13:25:16.659Z,1.07
2023-01-11T13:27:44.049Z,1.20
2023-01-11T13:30:14.069Z,1.00
2023-01-11T13:32:45.307Z,0.80
2023-01-11T13:35:16.883Z,0.90
2023-01-11T13:37:50.723Z,0.80
2023-01-11T13:40:22.243Z,0.77
2023-01-11T13:42:53.298Z,1.20
2023-01-11T13:45:25.789Z,1.10
2023-01-11T13:47:56.151Z,1.10
2023-01-11T13:50:27.762Z,1.20
2023-01-11T13:53:03.630Z,1.20
2023-01-11T13:55:40.225Z,0.83
2023-01-11T13:58:13.494Z,0.90
2023-01-11T14:00:43.212Z,0.70
2023-01-11T14:03:22.293Z,0.90
2023-01-11T14:05:58.059Z,0.60
2023-01-11T14:08:46.407Z,0.80
2023-01-11T14:11:22.079Z,0.60
2023-01-11T14:14:30.647Z,0.70
2023-01-11T14:17:17.357Z,0.60
2023-01-11T14:19:52.622Z,0.50
2023-01-11T14:22:26.610Z,0.70
2023-01-11T14:24:59.158Z,0.80
2023-01-11T14:27:47.084Z,0.80
2023-01-11T14:30:28.544Z,0.67
2023-01-11T14:33:39.533Z,0.70
2023-01-11T14:36:45.058Z,1.80
2023-01-11T14:39:24.678Z,0.50
2023-01-11T14:42:04.276Z,0.80
2023-01-11T14:44:56.177Z,1.20
2023-01-11T14:47:47.057Z,1.10
2023-01-11T14:50:23.356Z,1.10
2023-01-11T14:52:53.201Z,1.57
2023-01-11T14:55:22.795Z,1.10
2023-01-11T14:58:04.961Z,1.23
2023-01-11T15:01:04.684Z,1.00
2023-01-11T15:03:41.940Z,0.93
2023-01-11T15:06:13.951Z,1.00
2023-01-11T15:08:46.100Z,1.27
2023-01-11T15:11:23.722Z,1.10
2023-01-11T15:13:55.327Z,1.10
2023-01-11T15:16:43.420Z,1.17
2023-01-11T15:19:23.312Z,1.10
2023-01-11T15:21:52.583Z,1.23
2023-01-11T15:24:23.591Z,1.13
2023-01-11T15:26:50.363Z,1.00
2023-01-11T15:29:22.334Z,0.90
2023-01-11T15:32:07.167Z,1.20
2023-01-11T15:34:42.100Z,1.20
2023-01-11T15:37:31.192Z,1.17
2023-01-11T15:40:01.419Z,1.10
2023-01-11T15:43:04.061Z,0.70
2023-01-11T15:46:29.780Z,1.13
2023-01-11T15:49:17.813Z,0.80
2023-01-11T15:52:17.473Z,1.23
2023-01-11T15:55:17.326Z,1.07
2023-01-11T15:58:11.331Z,2.20
2023-01-11T16:01:07.446Z,1.10
2023-01-11T16:03:53.326Z,1.50
2023-01-11T16:06:32.069Z,1.70
2023-01-11T16:09:08.372Z,1.37
2023-01-11T16:11:44.232Z,1.13
2023-01-11T16:14:34.281Z,1.20
2023-01-11T16:17:02.507Z,1.17
2023-01-11T16:19:33.473Z,1.20
2023-01-11T16:22:04.781Z,1.33
2023-01-11T16:24:38.376Z,1.20
2023-01-11T16:27:06.519Z,1.73
2023-01-11T16:29:36.512Z,1.30
2023-01-11T16:32:06.104Z,1.10
2023-01-11T16:34:40.580Z,1.20
2023-01-11T16:37:20.923Z,1.43
2023-01-11T16:39:49.626Z,1.30
2023-01-11T16:42:16.000Z,1.07
2023-01-11T16:44:49.481Z,1.40
2023-01-11T16:47:17.750Z,1.47
2023-01-11T16:49:48.286Z,1.30
2023-01-11T16:52:38.074Z,1.97
2023-01-11T16:55:20.939Z,1.17
2023-01-11T16:57:51.473Z,1.33
2023-01-11T17:00:34.545Z,1.40
2023-01-11T17:03:04.957Z,1.20
2023-01-11T17:05:31.673Z,1.50
2023-01-11T17:07:58.821Z,1.70
2023-01-11T17:10:27.572Z,1.20
2023-01-11T17:13:36.488Z,1.50
2023-01-11T17:16:09.431Z,1.40
2023-01-11T17:18:38.622Z,1.70
2023-01-11T17:21:06.580Z,1.33
2023-01-11T17:23:33.732Z,1.40
2023-01-11T17:26:00.529Z,1.50
2023-01-11T17:28:27.003Z,1.50
2023-01-11T17:30:53.911Z,1.30
2023-01-11T17:33:28.943Z,1.60
2023-01-11T17:35:55.987Z,1.50
2023-01-11T17:38:25.133Z,1.40
2023-01-11T17:40:55.468Z,1.50
2023-01-11T17:43:42.269Z,1.33
2023-01-11T17:46:15.848Z,1.40
2023-01-11T17:48:52.622Z,1.77
2023-01-11T17:51:24.315Z,1.60
2023-01-11T17:53:51.312Z,2.17
2023-01-11T17:56:37.356Z,2.00
2023-01-11T17:59:16.280Z,2.00
2023-01-11T18:01:46.881Z,2.07
2023-01-11T18:04:19.138Z,2.60
2023-01-11T18:06:47.734Z,2.47
2023-01-11T18:09:22.562Z,2.77
2023-01-11T18:11:51.751Z,2.10
2023-01-11T18:14:21.854Z,2.80
2023-01-11T18:16:56.981Z,2.30
2023-01-11T18:19:31.032Z,2.73
2023-01-11T18:21:57.523Z,2.00
2023-01-11T18:24:52.168Z,1.60
2023-01-11T18:27:27.844Z,1.77
2023-01-11T18:29:56.699Z,1.70
2023-01-11T18:32:23.354Z,1.77
2023-01-11T18:34:54.110Z,1.30
2023-01-11T18:37:21.347Z,1.33
2023-01-11T18:39:50.177Z,1.10
2023-01-11T18:42:19.308Z,1.50
2023-01-11T18:44:50.572Z,1.53
2023-01-11T18:47:22.439Z,1.60
2023-01-11T18:49:49.771Z,1.03
2023-01-11T18:52:16.703Z,1.53
2023-01-11T18:54:43.635Z,1.40
2023-01-11T18:57:10.631Z,1.50
2023-01-11T18:59:37.092Z,1.20
2023-01-11T19:02:17.375Z,1.17
2023-01-11T19:04:44.531Z,1.23
2023-01-11T19:07:11.307Z,2.10
2023-01-11T19:09:38.156Z,2.10
2023-01-11T19:12:05.336Z,2.23
2023-01-11T19:14:31.982Z,2.23
2023-01-11T19:16:58.741Z,1.60
2023-01-11T19:19:25.868Z,1.80
2023-01-11T19:21:52.335Z,1.73
2023-01-11T19:24:18.795Z,2.00
2023-01-11T19:26:45.619Z,2.50
2023-01-11T19:29:15.771Z,1.93
2023-01-11T19:31:43.923Z,1.80
2023-01-11T19:34:11.193Z,1.77
2023-01-11T19:36:38.396Z,1.77
2023-01-11T19:39:05.787Z,2.13
2023-01-11T19:41:52.269Z,2.67
2023-01-11T19:44:19.013Z,3.10
2023-01-11T19:46:46.882Z,2.50
2023-01-11T19:49:13.516Z,2.90
2023-01-11T19:51:40.656Z,2.90
2023-01-11T19:54:08.637Z,2.70
2023-01-11T19:56:35.189Z,2.90
2023-01-11T19:59:01.700Z,2.73
2023-01-11T20:01:28.368Z,2.80
2023-01-11T20:03:54.828Z,3.10
2023-01-11T20:06:21.316Z,3.47
2023-01-11T20:08:50.407Z,3.47
2023-01-11T20:11:18.021Z,3.67
2023-01-11T20:13:49.815Z,3.53
2023-01-11T20:16:18.566Z,3.70
2023-01-11T20:18:51.154Z,4.43
2023-01-11T20:21:17.737Z,4.30
2023-01-11T20:23:44.295Z,3.93
2023-01-11T20:26:14.321Z,4.07
2023-01-11T20:28:41.434Z,4.30
2023-01-11T20:31:08.173Z,3.70
2023-01-11T20:33:34.797Z,3.50
2023-01-11T20:36:01.239Z,3.63
2023-01-11T20:38:28.202Z,3.60
2023-01-11T20:40:54.736Z,3.33
2023-01-11T20:43:21.872Z,2.50
2023-01-11T20:45:54.877Z,2.50
2023-01-11T20:48:21.489Z,2.87
2023-01-11T20:50:47.953Z,2.97
2023-01-11T20:53:14.570Z,2.50
2023-01-11T20:55:41.031Z,2.73
2023-01-11T20:58:07.728Z,2.37
2023-01-11T21:00:34.991Z,2.60
2023-01-11T21:03:01.467Z,2.33
2023-01-11T21:05:27.965Z,3.10
2023-01-11T21:07:54.392Z,2.40
2023-01-11T21:10:20.818Z,2.30
2023-01-11T21:12:49.563Z,2.30
2023-01-11T21:15:16.710Z,2.57
2023-01-11T21:17:43.792Z,2.77
2023-01-11T21:20:11.028Z,2.37
2023-01-11T21:22:37.454Z,2.00
2023-01-11T21:25:04.516Z,2.20
2023-01-11T21:27:30.943Z,1.70
2023-01-11T21:29:57.373Z,1.83
2023-01-11T21:32:23.958Z,2.03
2023-01-11T21:34:51.117Z,1.87
2023-01-11T21:37:19.090Z,1.97
2023-01-11T21:39:45.521Z,2.13
2023-01-11T21:42:11.966Z,2.10
2023-01-11T21:44:38.371Z,2.00
2023-01-11T21:47:06.286Z,2.23
2023-01-11T21:49:33.044Z,2.10
2023-01-11T21:52:00.452Z,2.30
2023-01-11T21:54:26.854Z,2.40
2023-01-11T21:56:53.399Z,2.40
2023-01-11T21:59:20.081Z,2.07
2023-01-11T22:01:48.413Z,2.40
2023-01-11T22:04:16.983Z,2.00
2023-01-11T22:06:46.530Z,2.40
2023-01-11T22:09:13.724Z,2.47
2023-01-11T22:11:40.174Z,2.43
2023-01-11T22:14:07.857Z,2.43
2023-01-11T22:16:35.351Z,2.53
2023-01-11T22:19:02.481Z,2.23
2023-01-11T22:21:29.095Z,2.73
2023-01-11T22:23:58.360Z,2.37
2023-01-11T22:26:29.170Z,2.43
2023-01-11T22:29:11.439Z,2.50
2023-01-11T22:31:39.228Z,2.47
2023-01-11T22:34:06.148Z,2.13
2023-01-11T22:36:32.631Z,2.50
2023-01-11T22:38:59.088Z,1.93
2023-01-11T22:41:26.193Z,1.80
2023-01-11T22:43:53.818Z,2.27
2023-01-11T22:46:22.508Z,1.70
2023-01-11T22:48:50.163Z,2.00
2023-01-11T22:51:18.762Z,2.13
2023-01-11T22:53:47.155Z,1.67
2023-01-11T22:56:15.143Z,1.70
2023-01-11T22:58:42.309Z,1.80
2023-01-11T23:01:11.668Z,1.90
2023-01-11T23:03:38.528Z,2.07
2023-01-11T23:06:05.511Z,1.67
2023-01-11T23:08:35.185Z,2.13
2023-01-11T23:11:01.637Z,1.83
2023-01-11T23:13:45.996Z,1.90
2023-01-11T23:16:14.983Z,1.83
2023-01-11T23:18:41.542Z,1.87
2023-01-11T23:21:08.348Z,1.70
2023-01-11T23:23:34.828Z,1.90
2023-01-11T23:26:01.369Z,1.80
2023-01-11T23:28:29.958Z,1.90
2023-01-11T23:30:56.435Z,1.90
2023-01-11T23:33:23.855Z,1.97
2023-01-11T23:35:55.417Z,1.90
2023-01-11T23:38:21.846Z,1.73
2023-01-11T23:41:06.362Z,1.87
2023-01-11T23:43:35.890Z,1.70
2023-01-11T23:46:23.817Z,1.50
2023-01-11T23:48:50.681Z,1.70
2023-01-11T23:51:17.063Z,1.80
2023-01-11T23:53:43.538Z,1.73
2023-01-11T23:56:09.941Z,1.67
2023-01-11T23:58:36.365Z,1.33
